Time;durP1;ratioP1;P1;durP2;ratioP2;P2;SDS_P1;SDS_P2;PMS_P1;PMS_P2;Temp;Humidity;BMP_temperature;BMP_pressure;BME280_temperature;BME280_humidity;BME280_pressure;Samples;Min_cycle;Max_cycle;Signal;HPM_P1;HPM_P2
2023/05/28 00:00:20;;;;;;;3.20;1.80;;;4.80;1.00;;;;;;8316907;28;20453;-66
2023/05/28 00:04:22;;;;;;;3.80;2.23;;;4.70;1.00;;;;;;8316119;28;20203;-66
2023/05/28 00:08:23;;;;;;;4.47;2.10;;;4.70;1.00;;;;;;8317384;28;20195;-67
2023/05/28 00:12:25;;;;;;;3.43;1.97;;;4.60;1.00;;;;;;8316152;28;20288;-65
2023/05/28 00:16:27;;;;;;;5.03;2.23;;;4.60;41.90;;;;;;8317627;28;20265;-65
2023/05/28 00:20:28;;;;;;;5.40;2.07;;;4.50;99.90;;;;;;8313510;28;20209;-64
2023/05/28 00:24:29;;;;;;;3.50;2.40;;;4.50;99.90;;;;;;8327954;28;20178;-66
2023/05/28 00:28:33;;;;;;;2.73;2.03;;;4.40;99.90;;;;;;8333058;28;20251;-66
2023/05/28 00:32:38;;;;;;;3.87;2.00;;;4.30;99.90;;;;;;8311475;28;20185;-66
2023/05/28 00:36:41;;;;;;;4.17;2.30;;;4.30;99.90;;;;;;8316876;28;20186;-65
2023/05/28 00:40:47;;;;;;;3.40;1.70;;;4.20;1.00;;;;;;8327727;28;20214;-66
2023/05/28 00:44:48;;;;;;;2.87;1.93;;;4.20;1.00;;;;;;8328187;28;20196;-66
2023/05/28 00:48:51;;;;;;;3.07;1.83;;;4.10;1.00;;;;;;8329282;28;20266;-66
2023/05/28 00:52:52;;;;;;;4.33;2.10;;;4.00;1.00;;;;;;8316885;28;20277;-66
2023/05/28 00:56:54;;;;;;;4.90;2.27;;;4.00;47.60;;;;;;8313335;28;20178;-66
2023/05/28 01:00:55;;;;;;;3.27;2.43;;;3.90;99.90;;;;;;8331450;28;20260;-66
2023/05/28 01:04:58;;;;;;;3.67;2.37;;;3.90;99.90;;;;;;8316571;28;20270;-66
2023/05/28 01:08:59;;;;;;;4.00;2.40;;;3.90;1.00;;;;;;8301496;28;20247;-66
2023/05/28 01:13:04;;;;;;;3.20;2.20;;;3.80;1.00;;;;;;8331033;28;20186;-66
2023/05/28 01:17:06;;;;;;;3.73;2.30;;;3.80;1.00;;;;;;8324409;28;20198;-66
2023/05/28 01:21:08;;;;;;;3.87;2.30;;;3.70;57.80;;;;;;8325466;28;20221;-65
2023/05/28 01:25:11;;;;;;;3.73;2.13;;;3.60;99.90;;;;;;8320131;28;20189;-66
2023/05/28 01:29:18;;;;;;;5.07;2.80;;;3.60;99.90;;;;;;8322800;28;20186;-65
2023/05/28 01:33:24;;;;;;;3.70;1.97;;;3.50;1.00;;;;;;8320111;28;20197;-66
2023/05/28 01:37:26;;;;;;;3.67;2.60;;;3.50;1.00;;;;;;8333076;28;20186;-65
2023/05/28 01:41:28;;;;;;;2.97;2.47;;;3.50;1.00;;;;;;8322900;28;20262;-67
2023/05/28 01:45:30;;;;;;;4.77;2.77;;;3.40;24.80;;;;;;8322855;28;20186;-66
2023/05/28 01:49:31;;;;;;;5.33;2.70;;;3.40;99.90;;;;;;8313800;28;20206;-66
2023/05/28 01:53:36;;;;;;;4.03;2.60;;;3.40;1.00;;;;;;8315745;28;20281;-65
2023/05/28 01:57:38;;;;;;;3.60;2.60;;;3.30;1.00;;;;;;8325943;28;20201;-65
2023/05/28 02:01:41;;;;;;;4.07;2.60;;;3.30;1.00;;;;;;8320053;28;20255;-65
2023/05/28 02:05:42;;;;;;;3.67;2.40;;;3.20;1.00;;;;;;8327743;28;20206;-66
2023/05/28 02:09:45;;;;;;;2.87;2.33;;;3.10;91.10;;;;;;8316044;28;20213;-66
2023/05/28 02:13:46;;;;;;;3.73;2.47;;;3.10;99.90;;;;;;8320896;28;20198;-66
2023/05/28 02:17:54;;;;;;;4.20;2.40;;;3.00;99.90;;;;;;8324612;28;20196;-68
2023/05/28 02:21:55;;;;;;;4.43;2.03;;;2.90;1.00;;;;;;8319744;28;20226;-67
2023/05/28 02:25:57;;;;;;;3.13;2.30;;;2.80;99.90;;;;;;8324280;28;20190;-66
2023/05/28 02:29:58;;;;;;;4.40;2.93;;;2.80;1.00;;;;;;8317835;28;20209;-66
2023/05/28 02:34:02;;;;;;;3.97;2.57;;;2.80;99.90;;;;;;8320765;28;20190;-66
2023/05/28 02:38:03;;;;;;;2.77;2.23;;;2.70;1.00;;;;;;8312905;28;20245;-67
2023/05/28 02:42:05;;;;;;;3.97;2.73;;;2.70;99.90;;;;;;8320644;28;20214;-66
2023/05/28 02:46:06;;;;;;;5.17;2.73;;;2.60;1.00;;;;;;8321138;28;20227;-67
2023/05/28 02:50:08;;;;;;;5.10;2.90;;;2.70;99.90;;;;;;8321158;28;20201;-66
2023/05/28 02:54:09;;;;;;;5.10;3.30;;;2.70;99.90;;;;;;8333469;28;20194;-65
2023/05/28 02:58:10;;;;;;;3.37;2.73;;;2.70;99.90;;;;;;8319811;28;20284;-66
2023/05/28 03:02:11;;;;;;;4.77;2.97;;;2.70;1.00;;;;;;8333797;28;20218;-66
2023/05/28 03:06:13;;;;;;;4.43;2.47;;;2.70;1.00;;;;;;8318730;28;20186;-70
2023/05/28 03:10:17;;;;;;;5.23;2.77;;;2.80;17.30;;;;;;8331817;28;20186;-69
2023/05/28 03:14:19;;;;;;;2.87;2.03;;;2.80;99.90;;;;;;8317871;28;20197;-69
2023/05/28 03:18:24;;;;;;;3.70;2.80;;;3.10;99.90;;;;;;8316336;28;20194;-69
2023/05/28 03:22:25;;;;;;;5.03;2.90;;;3.60;99.90;;;;;;8328587;28;20217;-70
2023/05/28 03:26:26;;;;;;;5.00;3.13;;;4.10;1.00;;;;;;8331027;28;20202;-70
2023/05/28 03:30:27;;;;;;;6.83;3.50;;;4.60;1.00;;;;;;8318766;28;20190;-70
2023/05/28 03:34:28;;;;;;;5.67;3.30;;;5.20;99.90;;;;;;8314837;28;20177;-70
2023/05/28 03:38:32;;;;;;;5.43;3.00;;;5.80;99.90;;;;;;8311430;28;20193;-69
2023/05/28 03:42:33;;;;;;;4.07;3.00;;;6.30;99.90;;;;;;8314068;28;20225;-70
2023/05/28 03:46:34;;;;;;;7.00;3.17;;;6.90;99.90;;;;;;8316931;28;20254;-70
2023/05/28 03:50:36;;;;;;;6.03;3.33;;;7.40;27.40;;;;;;8316709;28;20201;-70
2023/05/28 03:54:37;;;;;;;6.57;3.07;;;8.00;1.00;;;;;;8321809;28;20190;-70
2023/05/28 03:58:38;;;;;;;5.37;2.70;;;8.50;99.90;;;;;;8328847;28;20200;-70
2023/05/28 04:02:47;;;;;;;4.30;2.63;;;9.00;99.90;;;;;;8319090;28;20214;-70
2023/05/28 04:06:49;;;;;;;6.27;3.57;;;9.50;99.90;;;;;;8312592;28;20186;-69
2023/05/28 04:10:52;;;;;;;4.83;2.87;;;9.90;99.90;;;;;;8312074;28;20190;-70
2023/05/28 04:14:55;;;;;;;5.57;3.07;;;10.40;99.90;;;;;;8312253;28;20201;-69
2023/05/28 04:19:02;;;;;;;5.63;3.17;;;10.80;62.20;;;;;;8317619;28;20198;-69
2023/05/28 04:23:04;;;;;;;4.93;2.83;;;11.20;33.80;;;;;;8311725;28;20309;-70
2023/05/28 04:27:06;;;;;;;3.70;2.80;;;11.90;9.70;;;;;;8316767;28;20191;-68
2023/05/28 04:31:08;;;;;;;4.33;3.23;;;12.50;1.00;;;;;;8321928;28;20196;-69
2023/05/28 04:35:09;;;;;;;4.23;3.27;;;12.70;1.00;;;;;;8314557;28;20199;-69
2023/05/28 04:39:10;;;;;;;4.63;3.00;;;12.60;1.00;;;;;;8315541;28;20219;-68
2023/05/28 04:43:11;;;;;;;6.57;2.93;;;12.80;1.00;;;;;;8321588;28;20233;-68
2023/05/28 04:47:15;;;;;;;5.90;4.33;;;12.90;1.00;;;;;;8307211;28;20186;-68
2023/05/28 04:51:18;;;;;;;8.30;4.90;;;12.90;1.00;;;;;;8318729;28;20239;-67
2023/05/28 04:55:19;;;;;;;10.03;5.67;;;13.10;1.00;;;;;;8311968;28;20226;-67
2023/05/28 04:59:22;;;;;;;10.27;5.57;;;13.20;1.00;;;;;;8315097;28;20213;-68
2023/05/28 05:03:24;;;;;;;14.00;7.73;;;13.50;1.00;;;;;;8316930;28;20209;-68
2023/05/28 05:07:25;;;;;;;15.33;9.30;;;13.50;1.00;;;;;;8316352;28;20197;-68
2023/05/28 05:11:26;;;;;;;15.50;10.53;;;12.90;1.00;;;;;;8310347;28;20182;-68
2023/05/28 05:15:27;;;;;;;13.93;9.40;;;12.50;1.00;;;;;;8319292;28;20188;-68
2023/05/28 05:19:28;;;;;;;13.40;8.40;;;12.10;9.90;;;;;;8313300;28;20286;-68
2023/05/28 05:23:32;;;;;;;12.43;6.70;;;12.00;26.40;;;;;;8317707;28;20185;-68
2023/05/28 05:27:37;;;;;;;8.47;5.70;;;12.10;19.80;;;;;;8315181;28;20209;-68
2023/05/28 05:31:38;;;;;;;8.43;5.23;;;12.20;18.20;;;;;;8317559;28;20285;-69
2023/05/28 05:36:00;;;;;;;7.80;4.60;;;12.40;17.90;;;;;;8314319;28;20260;-70
2023/05/28 05:40:05;;;;;;;5.90;3.53;;;12.60;5.40;;;;;;8316094;28;20220;-69
2023/05/28 05:44:06;;;;;;;7.57;3.83;;;12.90;1.00;;;;;;8314469;28;20186;-69
2023/05/28 05:48:10;;;;;;;6.40;3.63;;;13.20;1.00;;;;;;8317252;28;20191;-68
2023/05/28 05:52:15;;;;;;;5.00;3.80;;;13.40;1.00;;;;;;8324831;28;20479;-68
2023/05/28 05:56:16;;;;;;;5.70;3.40;;;13.70;1.00;;;;;;8315472;28;20194;-70
2023/05/28 06:00:19;;;;;;;6.77;3.93;;;13.90;1.00;;;;;;8317567;28;20248;-68
2023/05/28 06:04:33;;;;;;;5.90;3.93;;;14.10;1.00;;;;;;8331820;28;20201;-70
2023/05/28 06:08:38;;;;;;;5.80;3.30;;;14.20;1.00;;;;;;8316176;28;20212;-69
2023/05/28 06:12:39;;;;;;;5.60;3.80;;;14.50;1.00;;;;;;8321202;28;20201;-67
2023/05/28 06:16:43;;;;;;;6.57;3.40;;;14.60;1.00;;;;;;8339456;28;20186;-70
2023/05/28 06:20:50;;;;;;;7.23;4.03;;;14.70;1.00;;;;;;8334098;28;20277;-69
2023/05/28 06:24:52;;;;;;;7.07;3.60;;;14.80;1.00;;;;;;8318989;28;20189;-69
2023/05/28 06:28:53;;;;;;;6.57;3.50;;;15.00;1.00;;;;;;8338937;28;20189;-69
2023/05/28 06:32:54;;;;;;;7.20;3.70;;;15.20;1.00;;;;;;8321573;28;20218;-69
2023/05/28 06:37:00;;;;;;;9.80;3.03;;;15.30;1.00;;;;;;8322193;28;20197;-69
2023/05/28 06:41:02;;;;;;;5.23;3.40;;;15.50;1.00;;;;;;8318492;28;20264;-69
2023/05/28 06:45:04;;;;;;;6.73;2.73;;;15.70;1.00;;;;;;8332342;28;20263;-68
2023/05/28 06:49:10;;;;;;;5.30;3.10;;;15.80;1.00;;;;;;8301606;28;20267;-67
2023/05/28 06:53:12;;;;;;;5.63;3.07;;;16.00;1.00;;;;;;8334695;28;20235;-67
2023/05/28 06:57:14;;;;;;;4.47;2.80;;;16.20;1.00;;;;;;8331678;28;20187;-70
2023/05/28 07:01:15;;;;;;;5.93;3.23;;;16.30;1.00;;;;;;8311600;28;20209;-68
2023/05/28 07:05:17;;;;;;;5.70;2.97;;;16.40;1.00;;;;;;8321850;28;20209;-69
2023/05/28 07:09:18;;;;;;;6.20;3.37;;;16.50;1.00;;;;;;8324034;28;20182;-69
2023/05/28 07:13:19;;;;;;;4.33;2.90;;;16.70;1.00;;;;;;8333148;28;20190;-68
2023/05/28 07:17:20;;;;;;;5.20;3.00;;;16.80;1.00;;;;;;8335791;28;20191;-68
2023/05/28 07:21:21;;;;;;;4.70;3.17;;;16.80;1.00;;;;;;8333955;28;20206;-67
2023/05/28 07:25:23;;;;;;;4.87;3.13;;;16.90;1.00;;;;;;8325796;28;20189;-68
2023/05/28 07:29:26;;;;;;;3.70;2.50;;;17.20;1.00;;;;;;8321824;28;20182;-68
2023/05/28 07:33:27;;;;;;;5.57;2.93;;;17.40;1.00;;;;;;8318841;28;20187;-68
2023/05/28 07:37:28;;;;;;;5.03;3.03;;;17.60;1.00;;;;;;8320726;28;20191;-68
2023/05/28 07:41:29;;;;;;;4.63;3.03;;;17.80;1.00;;;;;;8323134;28;20256;-69
2023/05/28 07:45:30;;;;;;;6.33;3.47;;;17.90;1.00;;;;;;8312453;28;20190;-70
2023/05/28 07:49:31;;;;;;;5.03;2.60;;;18.10;1.00;;;;;;8314241;28;20198;-69
2023/05/28 07:53:32;;;;;;;6.60;3.13;;;18.20;1.00;;;;;;8318752;28;20190;-71
2023/05/28 07:57:33;;;;;;;5.03;2.40;;;18.30;1.00;;;;;;8319906;28;20182;-69
2023/05/28 08:01:35;;;;;;;5.23;3.03;;;18.40;1.00;;;;;;8332265;28;20288;-73
2023/05/28 08:05:39;;;;;;;4.70;2.80;;;18.50;1.00;;;;;;8331336;28;20268;-70
2023/05/28 08:09:41;;;;;;;5.03;2.57;;;18.60;1.00;;;;;;8322094;28;20182;-72
2023/05/28 08:13:42;;;;;;;5.47;2.17;;;18.50;1.00;;;;;;8322139;28;20202;-72
2023/05/28 08:17:43;;;;;;;3.53;2.20;;;18.50;1.00;;;;;;8334387;28;20209;-68
2023/05/28 08:21:44;;;;;;;4.63;2.23;;;18.70;1.00;;;;;;8327796;28;20213;-71
2023/05/28 08:25:46;;;;;;;4.83;2.00;;;18.80;1.00;;;;;;8319336;28;20272;-72
2023/05/28 08:29:47;;;;;;;4.30;2.37;;;19.00;1.00;;;;;;8314333;28;20194;-68
2023/05/28 08:33:48;;;;;;;3.87;2.10;;;19.20;1.00;;;;;;8317083;28;20196;-67
2023/05/28 08:37:59;;;;;;;3.93;2.27;;;19.20;1.00;;;;;;8314399;28;20194;-71
2023/05/28 08:42:01;;;;;;;5.37;1.50;;;19.50;1.00;;;;;;8301454;28;20305;-71
2023/05/28 08:46:03;;;;;;;4.53;2.30;;;19.60;1.00;;;;;;8323821;28;20182;-72
2023/05/28 08:50:06;;;;;;;5.20;1.83;;;19.70;1.00;;;;;;8329505;28;20308;-71
2023/05/28 08:54:08;;;;;;;3.90;1.90;;;19.70;1.00;;;;;;8300430;28;20178;-69
2023/05/28 08:58:18;;;;;;;4.70;2.33;;;19.60;1.00;;;;;;8312616;28;20204;-72
2023/05/28 09:02:27;;;;;;;4.70;1.93;;;19.50;1.00;;;;;;8321404;28;20231;-73
2023/05/28 09:06:31;;;;;;;5.30;1.70;;;19.40;1.00;;;;;;8314908;28;20293;-72
2023/05/28 09:10:32;;;;;;;3.80;1.80;;;19.40;1.00;;;;;;8323748;28;20189;-69
2023/05/28 09:14:41;;;;;;;4.93;2.00;;;19.60;1.00;;;;;;8315839;28;20197;-68
2023/05/28 09:18:43;;;;;;;5.60;2.00;;;19.70;1.00;;;;;;8331432;28;20198;-74
2023/05/28 09:22:44;;;;;;;4.83;1.80;;;19.80;1.00;;;;;;8315225;28;20210;-70
2023/05/28 09:26:46;;;;;;;4.97;1.77;;;19.90;1.00;;;;;;8311187;28;20210;-71
2023/05/28 09:30:51;;;;;;;4.03;1.73;;;20.00;1.00;;;;;;8318243;28;20191;-66
2023/05/28 09:34:52;;;;;;;3.90;1.90;;;20.10;1.00;;;;;;8334739;28;20182;-65
2023/05/28 09:38:53;;;;;;;3.67;1.73;;;20.20;1.00;;;;;;8332418;28;20232;-66
2023/05/28 09:42:54;;;;;;;3.50;1.77;;;20.30;1.00;;;;;;8326103;28;20214;-67
2023/05/28 09:46:55;;;;;;;5.17;2.20;;;20.50;1.00;;;;;;8325127;28;20183;-66
2023/05/28 09:50:59;;;;;;;4.73;2.20;;;20.60;1.00;;;;;;8333455;28;20202;-69
2023/05/28 09:55:03;;;;;;;5.93;1.80;;;20.70;1.00;;;;;;8327892;28;20216;-68
2023/05/28 09:59:07;;;;;;;2.40;1.80;;;20.60;1.00;;;;;;8320652;28;20201;-70
2023/05/28 10:03:11;;;;;;;3.07;2.30;;;20.60;1.00;;;;;;8337295;28;20207;-68
2023/05/28 10:07:15;;;;;;;11.63;3.30;;;20.60;1.00;;;;;;8335329;28;20189;-68
2023/05/28 10:11:26;;;;;;;3.27;2.00;;;20.60;1.00;;;;;;8316216;28;20205;-68
2023/05/28 10:15:27;;;;;;;2.67;1.73;;;20.70;1.00;;;;;;8314733;28;20187;-66
2023/05/28 10:19:29;;;;;;;5.20;2.00;;;20.80;1.00;;;;;;8319371;28;20237;-68
2023/05/28 10:23:31;;;;;;;4.33;2.13;;;20.90;1.00;;;;;;8329995;28;20189;-70
2023/05/28 10:27:34;;;;;;;3.97;2.00;;;20.90;1.00;;;;;;8314502;28;20414;-70
2023/05/28 10:31:35;;;;;;;3.53;1.70;;;21.00;1.00;;;;;;8335236;28;20239;-70
2023/05/28 10:35:54;;;;;;;3.73;2.10;;;21.00;1.00;;;;;;8331697;28;20190;-68
2023/05/28 10:39:58;;;;;;;2.87;1.77;;;21.00;1.00;;;;;;8329392;28;20210;-67
2023/05/28 10:44:06;;;;;;;2.37;1.83;;;21.10;1.00;;;;;;8316109;28;20200;-66
2023/05/28 10:48:14;;;;;;;2.83;1.83;;;21.00;1.00;;;;;;8318848;28;20175;-66
2023/05/28 10:52:26;;;;;;;4.97;2.30;;;21.10;1.00;;;;;;8324688;28;20209;-71
2023/05/28 10:56:27;;;;;;;3.27;1.90;;;21.20;1.00;;;;;;8333269;28;20236;-67
2023/05/28 11:00:28;;;;;;;3.33;1.83;;;21.20;1.00;;;;;;8315287;28;20225;-67
2023/05/28 11:04:34;;;;;;;6.23;2.57;;;21.10;1.00;;;;;;8317981;28;20197;-66
2023/05/28 11:08:46;;;;;;;3.27;2.10;;;21.20;1.00;;;;;;8325132;28;20208;-71
2023/05/28 11:12:50;;;;;;;4.70;1.80;;;21.30;1.00;;;;;;8335043;28;20179;-66
2023/05/28 11:16:51;;;;;;;3.97;2.20;;;21.30;1.00;;;;;;8318503;28;20190;-68
2023/05/28 11:21:07;;;;;;;4.30;2.10;;;21.30;1.00;;;;;;8325053;28;20292;-69
2023/05/28 11:25:09;;;;;;;3.97;2.20;;;21.40;1.00;;;;;;8309118;28;20269;-66
2023/05/28 11:29:12;;;;;;;3.63;2.30;;;21.50;1.00;;;;;;8321130;28;20239;-66
2023/05/28 11:33:14;;;;;;;4.33;1.90;;;21.50;1.00;;;;;;8331826;28;20189;-67
2023/05/28 11:37:16;;;;;;;3.63;2.20;;;21.60;1.00;;;;;;8316161;28;20186;-67
2023/05/28 11:41:27;;;;;;;4.60;2.10;;;21.60;1.00;;;;;;8317631;28;20209;-67
2023/05/28 11:45:35;;;;;;;5.07;2.27;;;21.60;1.00;;;;;;8334347;28;20182;-69
2023/05/28 11:49:37;;;;;;;4.77;2.13;;;21.70;1.00;;;;;;8322145;28;20203;-68
2023/05/28 11:53:42;;;;;;;5.63;2.37;;;21.80;1.00;;;;;;8333957;28;20185;-69
2023/05/28 11:57:53;;;;;;;3.33;1.93;;;21.90;1.00;;;;;;8333914;28;20403;-67
2023/05/28 12:01:54;;;;;;;4.10;2.13;;;21.90;1.00;;;;;;8320762;28;20202;-67
2023/05/28 12:05:55;;;;;;;5.60;2.40;;;21.90;1.00;;;;;;8332229;28;20206;-68
2023/05/28 12:10:07;;;;;;;4.17;2.47;;;21.90;1.00;;;;;;8322155;28;20271;-67
2023/05/28 12:14:12;;;;;;;5.10;2.67;;;21.80;1.00;;;;;;8332480;28;20183;-67
2023/05/28 12:18:13;;;;;;;5.33;2.33;;;21.90;1.00;;;;;;8320667;28;20193;-69
2023/05/28 12:22:18;;;;;;;2.43;1.80;;;21.80;1.00;;;;;;8334321;28;20293;-69
2023/05/28 12:26:19;;;;;;;3.87;2.53;;;21.70;1.00;;;;;;8312423;28;20213;-69
2023/05/28 12:30:21;;;;;;;2.93;2.00;;;21.80;1.00;;;;;;8317933;28;20244;-67
2023/05/28 12:34:22;;;;;;;3.63;2.43;;;21.90;1.00;;;;;;8317779;28;20185;-67
2023/05/28 12:38:23;;;;;;;4.60;2.30;;;21.90;1.00;;;;;;8332595;28;20209;-66
2023/05/28 12:42:24;;;;;;;3.50;2.30;;;21.90;1.00;;;;;;8318065;28;20209;-67
2023/05/28 12:46:26;;;;;;;3.63;2.17;;;21.90;1.00;;;;;;8310459;28;20208;-66
2023/05/28 12:50:31;;;;;;;3.30;2.23;;;21.90;1.00;;;;;;8313700;28;20209;-67
2023/05/28 12:54:34;;;;;;;4.70;2.00;;;21.80;1.00;;;;;;8318933;28;20237;-67
2023/05/28 12:58:35;;;;;;;3.93;1.83;;;21.90;1.00;;;;;;8331957;28;20236;-66
2023/05/28 13:02:36;;;;;;;6.07;2.03;;;21.80;1.00;;;;;;8312960;28;20210;-71
2023/05/28 13:06:37;;;;;;;2.60;1.90;;;22.00;1.00;;;;;;8331439;28;20182;-66
2023/05/28 13:10:38;;;;;;;4.47;2.07;;;22.10;1.00;;;;;;8326873;28;20182;-70
2023/05/28 13:14:39;;;;;;;2.33;1.70;;;22.20;1.00;;;;;;8326432;28;20193;-68
2023/05/28 13:18:42;;;;;;;2.60;1.70;;;22.20;1.00;;;;;;8321940;28;20194;-67
2023/05/28 13:22:43;;;;;;;4.07;2.20;;;22.30;1.00;;;;;;8322565;28;20249;-69
2023/05/28 13:26:44;;;;;;;4.70;2.10;;;22.40;1.00;;;;;;8335037;28;20195;-69
2023/05/28 13:30:45;;;;;;;3.47;2.17;;;22.40;1.00;;;;;;8327814;28;20259;-72
2023/05/28 13:34:46;;;;;;;3.93;1.83;;;22.30;1.00;;;;;;8325344;28;20189;-67
2023/05/28 13:38:47;;;;;;;3.23;2.03;;;22.20;1.00;;;;;;8327358;28;20193;-67
2023/05/28 13:42:49;;;;;;;5.07;1.93;;;22.30;1.00;;;;;;8318068;28;20222;-67
2023/05/28 13:46:50;;;;;;;3.33;2.03;;;22.20;1.00;;;;;;8325699;28;20190;-70
2023/05/28 13:50:51;;;;;;;3.23;1.70;;;22.20;1.00;;;;;;8334759;28;20206;-68
2023/05/28 13:54:52;;;;;;;2.37;1.80;;;22.30;1.00;;;;;;8321886;28;20194;-68
2023/05/28 13:58:53;;;;;;;3.17;1.60;;;22.40;1.00;;;;;;8335929;28;20216;-70
2023/05/28 14:02:54;;;;;;;3.60;1.93;;;22.30;1.00;;;;;;8321032;28;20222;-67
2023/05/28 14:06:55;;;;;;;2.80;1.80;;;22.40;1.00;;;;;;8326875;28;20254;-67
2023/05/28 14:10:56;;;;;;;3.30;1.93;;;22.40;1.00;;;;;;8322230;28;20190;-67
2023/05/28 14:14:57;;;;;;;2.77;1.77;;;22.40;1.00;;;;;;8323526;28;20189;-69
2023/05/28 14:18:58;;;;;;;3.83;2.67;;;22.10;1.00;;;;;;8322791;28;20209;-74
2023/05/28 14:22:59;;;;;;;4.60;1.90;;;21.90;1.00;;;;;;8327407;28;20210;-66
2023/05/28 14:27:01;;;;;;;4.63;2.30;;;21.90;1.00;;;;;;8334002;28;20229;-69
2023/05/28 14:31:02;;;;;;;4.40;1.70;;;22.10;1.00;;;;;;8323296;28;20190;-67
2023/05/28 14:35:04;;;;;;;2.20;1.80;;;22.30;1.00;;;;;;8315939;28;20204;-67
2023/05/28 14:39:07;;;;;;;3.80;1.97;;;22.40;1.00;;;;;;8321383;28;20250;-69
2023/05/28 14:43:10;;;;;;;3.03;1.80;;;22.50;1.00;;;;;;8319373;28;20221;-68
2023/05/28 14:47:11;;;;;;;3.50;1.93;;;22.50;1.00;;;;;;8333268;28;20261;-67
2023/05/28 14:51:13;;;;;;;4.00;1.87;;;22.50;1.00;;;;;;8334656;28;20227;-66
2023/05/28 14:55:14;;;;;;;3.23;1.80;;;22.40;1.00;;;;;;8322129;28;20186;-67
2023/05/28 14:59:15;;;;;;;3.13;1.70;;;22.50;1.00;;;;;;8334439;28;20187;-66
2023/05/28 15:03:19;;;;;;;2.07;1.40;;;22.70;1.00;;;;;;8336335;28;20273;-66
2023/05/28 15:07:20;;;;;;;2.83;1.50;;;22.80;1.00;;;;;;8313649;28;20249;-68
2023/05/28 15:11:21;;;;;;;3.70;1.90;;;22.90;1.00;;;;;;8315145;28;20250;-66
2023/05/28 15:15:24;;;;;;;2.13;1.67;;;22.80;1.00;;;;;;8323202;28;20190;-66
2023/05/28 15:19:28;;;;;;;5.67;2.07;;;22.70;1.00;;;;;;8320219;28;20182;-65
2023/05/28 15:23:30;;;;;;;4.13;1.60;;;22.70;1.00;;;;;;8316826;28;20189;-67
2023/05/28 15:27:31;;;;;;;1.80;1.50;;;22.80;1.00;;;;;;8322858;28;20186;-67
2023/05/28 15:31:32;;;;;;;3.30;1.87;;;22.80;1.00;;;;;;8316446;28;20193;-67
2023/05/28 15:35:33;;;;;;;3.57;1.87;;;22.80;1.00;;;;;;8314524;28;20188;-67
2023/05/28 15:39:34;;;;;;;2.50;1.53;;;22.80;1.00;;;;;;8323750;28;20248;-66
2023/05/28 15:43:36;;;;;;;3.53;2.10;;;22.80;1.00;;;;;;8329349;28;20189;-68
2023/05/28 15:47:37;;;;;;;2.87;1.73;;;22.70;1.00;;;;;;8333152;28;20253;-67
2023/05/28 15:51:40;;;;;;;5.97;1.63;;;22.60;1.00;;;;;;8315757;28;20193;-67
2023/05/28 15:55:42;;;;;;;1.70;1.10;;;22.60;1.00;;;;;;8319036;28;20186;-68
2023/05/28 15:59:43;;;;;;;4.67;1.70;;;22.50;1.00;;;;;;8320061;28;20210;-68
2023/05/28 16:03:45;;;;;;;2.53;2.00;;;22.60;1.00;;;;;;8319092;28;20225;-67
2023/05/28 16:07:49;;;;;;;3.80;1.40;;;22.50;1.00;;;;;;8333471;28;20182;-68
2023/05/28 16:12:00;;;;;;;2.17;1.67;;;22.40;1.00;;;;;;8332569;28;20191;-67
2023/05/28 16:16:03;;;;;;;3.20;1.37;;;22.40;1.00;;;;;;8331131;28;20190;-67
2023/05/28 16:20:06;;;;;;;3.77;1.80;;;22.30;1.00;;;;;;8313631;28;20355;-67
2023/05/28 16:24:07;;;;;;;3.17;1.53;;;22.30;1.00;;;;;;8320748;28;20178;-67
2023/05/28 16:28:09;;;;;;;3.80;1.40;;;22.20;1.00;;;;;;8312370;28;20193;-67
2023/05/28 16:32:12;;;;;;;2.10;1.40;;;22.20;1.00;;;;;;8329795;28;20183;-67
2023/05/28 16:36:14;;;;;;;2.23;1.13;;;22.20;1.00;;;;;;8316266;28;20185;-67
2023/05/28 16:40:15;;;;;;;2.53;1.40;;;22.20;1.00;;;;;;8322961;28;20214;-67
2023/05/28 16:44:17;;;;;;;4.10;1.30;;;22.10;1.00;;;;;;8331084;28;20189;-68
2023/05/28 16:48:19;;;;;;;2.10;1.40;;;22.10;1.00;;;;;;8318592;28;20183;-66
2023/05/28 16:52:20;;;;;;;3.03;1.10;;;22.00;1.00;;;;;;8329755;28;20224;-67
2023/05/28 16:56:37;;;;;;;1.70;1.30;;;22.00;1.00;;;;;;8308486;28;20662;-66
2023/05/28 17:00:38;;;;;;;1.53;1.20;;;22.00;1.00;;;;;;8304464;28;20198;-65
2023/05/28 17:04:40;;;;;;;1.77;1.10;;;21.90;1.00;;;;;;8295341;28;20210;-66
2023/05/28 17:08:41;;;;;;;5.93;1.40;;;22.00;1.00;;;;;;8262996;28;20206;-68
2023/05/28 17:12:42;;;;;;;3.80;1.23;;;22.00;1.00;;;;;;8266204;28;20282;-68
2023/05/28 17:16:43;;;;;;;4.87;1.37;;;22.00;1.00;;;;;;8293016;28;20191;-67
2023/05/28 17:20:50;;;;;;;3.37;1.47;;;22.50;1.00;;;;;;8266777;28;20282;-67
2023/05/28 17:24:51;;;;;;;21.33;18.37;;;23.20;1.00;;;;;;8267481;28;20196;-67
2023/05/28 17:28:53;;;;;;;27.30;21.97;;;24.00;1.00;;;;;;8265987;28;20202;-67
2023/05/28 17:32:54;;;;;;;12.87;10.30;;;24.50;1.00;;;;;;8272463;28;20212;-68
2023/05/28 17:36:55;;;;;;;3.85;2.88;;;24.90;1.00;;;;;;8279985;28;20310;-68
2023/05/28 17:40:57;;;;;;;9.33;6.80;;;25.40;1.00;;;;;;8290981;28;20192;-67
2023/05/28 17:44:58;;;;;;;17.70;7.07;;;25.50;1.00;;;;;;8265293;28;20184;-67
2023/05/28 17:49:01;;;;;;;25.70;11.82;;;25.50;1.00;;;;;;8257078;28;20188;-67
2023/05/28 17:53:04;;;;;;;18.87;10.07;;;25.50;1.00;;;;;;8269728;28;20219;-67
2023/05/28 17:57:05;;;;;;;7.75;4.95;;;25.50;1.00;;;;;;8294182;28;20187;-67
2023/05/28 18:01:06;;;;;;;6.70;3.73;;;25.50;1.00;;;;;;8279535;28;20185;-67
2023/05/28 18:05:08;;;;;;;3.73;2.67;;;25.60;1.00;;;;;;8279601;28;20249;-67
2023/05/28 18:09:09;;;;;;;5.03;2.90;;;25.50;1.00;;;;;;8255289;28;20191;-68
2023/05/28 18:13:10;;;;;;;3.40;2.20;;;25.30;1.00;;;;;;8269918;28;20303;-68
2023/05/28 18:17:11;;;;;;;2.90;1.90;;;25.00;1.00;;;;;;8288704;28;20191;-68
2023/05/28 18:21:12;;;;;;;2.93;2.00;;;24.60;1.00;;;;;;8258154;28;20191;-68
2023/05/28 18:25:14;;;;;;;2.30;1.70;;;23.90;1.00;;;;;;8273591;28;20183;-67
2023/05/28 18:29:15;;;;;;;3.23;1.50;;;23.30;1.00;;;;;;8256283;28;20207;-67
2023/05/28 18:33:16;;;;;;;2.47;1.57;;;22.80;1.00;;;;;;8269850;28;20233;-67
2023/05/28 18:37:17;;;;;;;1.63;1.23;;;22.40;1.00;;;;;;8256233;28;20183;-68
2023/05/28 18:41:18;;;;;;;1.83;1.30;;;21.80;1.00;;;;;;8255175;28;20184;-67
2023/05/28 18:45:20;;;;;;;2.23;1.50;;;20.90;1.00;;;;;;8269318;28;20214;-68
2023/05/28 18:49:21;;;;;;;1.70;1.10;;;20.00;1.00;;;;;;8255416;28;20187;-67
2023/05/28 18:53:25;;;;;;;2.53;1.03;;;19.00;1.00;;;;;;8256858;28;20258;-67
2023/05/28 18:57:29;;;;;;;2.17;1.37;;;18.20;1.00;;;;;;8257070;28;20191;-66
2023/05/28 19:01:41;;;;;;;1.70;1.40;;;17.40;1.00;;;;;;8254878;28;20194;-67
2023/05/28 19:05:43;;;;;;;2.30;1.43;;;16.80;1.00;;;;;;8250537;28;20236;-67
2023/05/28 19:09:46;;;;;;;4.03;2.03;;;16.20;1.00;;;;;;8255904;28;20191;-67
2023/05/28 19:13:47;;;;;;;3.40;1.80;;;15.80;1.00;;;;;;8252594;28;20226;-66
2023/05/28 19:17:48;;;;;;;3.73;2.17;;;15.30;1.00;;;;;;8259906;28;20274;-68
2023/05/28 19:21:49;;;;;;;2.07;1.70;;;15.00;1.00;;;;;;8265627;28;20183;-64
2023/05/28 19:25:56;;;;;;;2.97;2.13;;;14.60;1.00;;;;;;8270433;28;20188;-65
2023/05/28 19:29:57;;;;;;;2.30;1.60;;;14.30;1.00;;;;;;8270011;28;20196;-65
2023/05/28 19:33:58;;;;;;;3.07;1.97;;;14.00;1.00;;;;;;8258697;28;20230;-65
2023/05/28 19:37:59;;;;;;;3.37;2.00;;;13.70;1.00;;;;;;8270035;28;20233;-65
2023/05/28 19:42:00;;;;;;;2.23;1.70;;;13.40;1.00;;;;;;8256298;28;20199;-65
2023/05/28 19:46:01;;;;;;;3.30;2.30;;;13.20;1.00;;;;;;8260648;28;20219;-65
2023/05/28 19:50:04;;;;;;;3.17;1.67;;;13.00;1.00;;;;;;8269738;28;20237;-66
2023/05/28 19:54:06;;;;;;;2.00;1.50;;;12.70;1.00;;;;;;8251937;28;20214;-65
2023/05/28 19:58:08;;;;;;;3.20;1.60;;;12.50;1.00;;;;;;8258277;28;20183;-65
2023/05/28 20:02:09;;;;;;;3.00;1.93;;;12.30;1.40;;;;;;8258878;28;20201;-64
2023/05/28 20:06:11;;;;;;;4.27;2.20;;;12.10;8.60;;;;;;8255249;28;20222;-66
2023/05/28 20:10:15;;;;;;;2.03;1.60;;;11.90;21.50;;;;;;8252683;28;20198;-65
2023/05/28 20:14:15;;;;;;;1.93;1.50;;;11.70;41.70;;;;;;8263049;28;20217;-67
2023/05/28 20:18:17;;;;;;;3.43;2.10;;;11.50;57.30;;;;;;8267614;28;20187;-66
2023/05/28 20:22:18;;;;;;;2.57;1.80;;;11.40;76.10;;;;;;8252344;28;20184;-65
2023/05/28 20:26:20;;;;;;;2.40;1.80;;;11.20;93.10;;;;;;8250759;28;20191;-66
2023/05/28 20:30:21;;;;;;;2.80;1.60;;;11.00;99.90;;;;;;8254221;28;20183;-67
2023/05/28 20:34:22;;;;;;;2.30;1.47;;;10.80;99.90;;;;;;8253080;28;20315;-66
2023/05/28 20:38:25;;;;;;;2.73;1.03;;;10.60;99.90;;;;;;8253100;28;20195;-66
2023/05/28 20:42:26;;;;;;;1.73;1.30;;;10.50;99.90;;;;;;8253707;28;20190;-66
2023/05/28 20:46:27;;;;;;;1.70;1.30;;;10.30;99.90;;;;;;8252872;28;20187;-66
2023/05/28 20:50:28;;;;;;;1.63;1.23;;;10.20;99.90;;;;;;8248300;28;20191;-65
2023/05/28 20:54:29;;;;;;;2.10;1.80;;;10.10;99.90;;;;;;8268175;28;20211;-64
2023/05/28 20:58:37;;;;;;;2.47;1.43;;;9.90;99.90;;;;;;8265567;28;20192;-65
2023/05/28 21:02:38;;;;;;;2.70;1.67;;;9.80;99.90;;;;;;8267342;28;20196;-66
2023/05/28 21:06:39;;;;;;;2.70;1.80;;;9.70;99.90;;;;;;8267376;28;20186;-66
2023/05/28 21:10:42;;;;;;;3.30;2.07;;;9.60;99.90;;;;;;8254184;28;20187;-66
2023/05/28 21:14:43;;;;;;;2.90;1.70;;;9.50;99.90;;;;;;8248601;28;20226;-65
2023/05/28 21:18:44;;;;;;;3.33;1.70;;;9.40;99.90;;;;;;8266109;28;20315;-65